Time;durP1;ratioP1;P1;durP2;ratioP2;P2;SDS_P1;SDS_P2;PMS_P1;PMS_P2;Temp;Humidity;BMP_temperature;BMP_pressure;BME280_temperature;BME280_humidity;BME280_pressure;Samples;Min_cycle;Max_cycle;Signal;HPM_P1;HPM_P2
2023/09/17 00:00:14;;;;;;;18.07;14.67;;;18.80;99.90;;;;;;5014021;28;20487;-86
2023/09/17 00:03:25;;;;;;;16.33;14.37;;;18.80;99.90;;;;;;4997782;28;20460;-89
2023/09/17 00:05:51;;;;;;;17.33;14.10;;;18.70;99.90;;;;;;4950546;28;20421;-88
2023/09/17 00:08:18;;;;;;;15.97;13.93;;;18.70;99.90;;;;;;5007982;28;21105;-87
2023/09/17 00:10:49;;;;;;;17.13;14.13;;;18.70;99.90;;;;;;4992394;28;20230;-87
2023/09/17 00:13:30;;;;;;;17.57;14.77;;;18.70;99.90;;;;;;4978545;28;20447;-87
2023/09/17 00:16:13;;;;;;;;;;;;;;;;;;;;;
2023/09/17 00:18:39;;;;;;;17.13;13.70;;;18.70;99.90;;;;;;4969611;28;20439;-88
2023/09/17 00:21:07;;;;;;;17.30;15.10;;;18.70;99.90;;;;;;4993093;28;20405;-88
2023/09/17 00:23:33;;;;;;;19.83;14.90;;;18.70;99.90;;;;;;4977469;28;20184;-88
2023/09/17 00:25:58;;;;;;;18.90;14.63;;;18.70;99.90;;;;;;4976514;28;20513;-88
2023/09/17 00:28:24;;;;;;;15.00;13.40;;;18.70;99.90;;;;;;4976599;28;20206;-88
2023/09/17 00:30:54;;;;;;;16.03;13.30;;;18.70;99.90;;;;;;4977496;28;20179;-89
2023/09/17 00:34:09;;;;;;;;;;;;;;;;;;;;;
2023/09/17 00:36:40;;;;;;;15.03;10.60;;;18.70;99.90;;;;;;4940565;28;20917;-88
2023/09/17 00:39:09;;;;;;;15.53;11.07;;;18.70;99.90;;;;;;4922744;29;20995;-87
2023/09/17 00:41:35;;;;;;;14.77;11.77;;;18.70;99.90;;;;;;4936634;29;20452;-87
2023/09/17 00:44:04;;;;;;;10.70;9.70;;;18.70;99.90;;;;;;4937763;29;20931;-88
2023/09/17 00:46:31;;;;;;;12.03;10.73;;;18.70;99.90;;;;;;4921185;29;20414;-87
2023/09/17 00:49:00;;;;;;;11.57;10.30;;;18.70;99.90;;;;;;4953806;29;20501;-87
2023/09/17 00:51:34;;;;;;;12.40;10.77;;;18.70;99.90;;;;;;4937832;28;20418;-87
2023/09/17 00:54:02;;;;;;;12.73;11.43;;;18.70;99.90;;;;;;4935497;29;20425;-88
2023/09/17 00:57:03;;;;;;;12.37;10.33;;;18.70;99.90;;;;;;4920453;29;20446;-88
2023/09/17 00:59:50;;;;;;;12.60;10.23;;;18.70;99.90;;;;;;4920790;28;20411;-89
2023/09/17 01:02:57;;;;;;;;;;;;;;;;;;;;;
2023/09/17 01:13:48;;;;;;;;;;;;;;;;;;;;;
2023/09/17 02:33:03;;;;;;;26.60;18.20;;;18.80;99.90;;;;;;4991381;28;20463;-89
2023/09/17 02:35:28;;;;;;;26.13;20.00;;;18.80;99.90;;;;;;5001616;28;20464;-89
2023/09/17 02:37:54;;;;;;;23.43;20.60;;;18.70;99.90;;;;;;4999229;28;20833;-89
2023/09/17 02:40:24;;;;;;;25.40;22.63;;;18.70;99.90;;;;;;5013029;28;20240;-90
2023/09/17 02:42:53;;;;;;;24.00;21.40;;;18.70;99.90;;;;;;4999097;28;20195;-90
2023/09/17 02:45:19;;;;;;;24.53;21.70;;;18.70;99.90;;;;;;4999077;28;20421;-89
2023/09/17 02:47:45;;;;;;;30.50;23.30;;;18.80;99.90;;;;;;5016283;28;20395;-89
2023/09/17 02:50:12;;;;;;;26.07;22.00;;;18.80;99.90;;;;;;4999054;28;20178;-89
2023/09/17 02:52:39;;;;;;;23.30;20.17;;;18.70;99.90;;;;;;4998828;28;20186;-89
2023/09/17 03:00:08;;;;;;;;;;;;;;;;;;;;;
2023/09/17 03:05:56;;;;;;;;;;;;;;;;;;;;;
2023/09/17 03:08:41;;;;;;;30.80;20.93;;;18.60;99.90;;;;;;5036317;28;20451;-89
2023/09/17 03:11:28;;;;;;;27.67;21.37;;;18.60;99.90;;;;;;4988902;28;20424;-89
2023/09/17 03:13:55;;;;;;;26.50;20.93;;;18.70;99.90;;;;;;5016512;28;20421;-88
2023/09/17 03:16:24;;;;;;;26.83;20.23;;;18.60;99.90;;;;;;5018590;28;20442;-91
2023/09/17 03:18:49;;;;;;;28.77;20.50;;;18.60;99.90;;;;;;5018478;28;20442;-91
2023/09/17 03:21:18;;;;;;;26.40;20.57;;;18.60;99.90;;;;;;5018031;28;20443;-90
2023/09/17 03:32:15;;;;;;;;;;;;;;;;;;;;;
2023/09/17 03:35:11;;;;;;;35.43;22.27;;;18.60;99.90;;;;;;4895951;29;20403;-92
2023/09/17 03:56:56;;;;;;;28.40;24.20;;;18.50;99.90;;;;;;4800050;29;20443;-91
2023/09/17 03:59:28;;;;;;;38.50;22.67;;;18.60;99.90;;;;;;4776475;29;20418;-92
2023/09/17 04:02:37;;;;;;;34.90;23.83;;;18.50;99.90;;;;;;4869697;29;20425;-92
2023/09/17 04:06:20;;;;;;;;;;;;;;;;;;;;;
2023/09/17 04:08:56;;;;;;;40.40;27.50;;;18.40;99.90;;;;;;4974342;28;20448;-91
2023/09/17 04:11:51;;;;;;;35.07;26.90;;;18.50;99.90;;;;;;4957881;28;20435;-91
2023/09/17 04:15:05;;;;;;;32.60;24.87;;;18.50;99.90;;;;;;4955288;28;20405;-92
2023/09/17 04:21:15;;;;;;;33.30;26.17;;;18.30;99.90;;;;;;4949212;28;20425;-92
2023/09/17 04:24:16;;;;;;;36.43;28.07;;;18.40;99.90;;;;;;4954881;28;20407;-91
2023/09/17 04:27:46;;;;;;;40.37;27.47;;;18.40;99.90;;;;;;4996484;28;20494;-92
2023/09/17 04:34:03;;;;;;;37.53;25.63;;;18.20;99.90;;;;;;5028941;28;20436;-92
2023/09/17 04:37:06;;;;;;;39.00;26.23;;;18.10;99.90;;;;;;4992519;28;20412;-93
2023/09/17 04:39:42;;;;;;;58.60;31.60;;;18.10;99.90;;;;;;4995254;28;20429;-92
2023/09/17 04:42:13;;;;;;;43.07;27.07;;;18.10;99.90;;;;;;4997414;28;20463;-93
2023/09/17 04:44:43;;;;;;;46.27;28.73;;;18.10;99.90;;;;;;4997170;28;20499;-93
2023/09/17 04:47:09;;;;;;;45.13;27.90;;;18.10;99.90;;;;;;4997546;28;20956;-93
2023/09/17 04:49:45;;;;;;;42.30;26.73;;;18.10;99.90;;;;;;4996899;28;20539;-93
2023/09/17 04:52:13;;;;;;;33.40;24.57;;;18.00;99.90;;;;;;4996372;28;20237;-93
2023/09/17 04:54:41;;;;;;;38.57;24.33;;;18.00;99.90;;;;;;4997751;28;20812;-93
2023/09/17 04:57:12;;;;;;;31.23;23.60;;;17.90;99.90;;;;;;4997638;28;20627;-93
2023/09/17 05:00:22;;;;;;;41.27;23.50;;;17.80;99.90;;;;;;4997410;28;20424;-93
2023/09/17 05:03:18;;;;;;;;;;;;;;;;;;;;;
2023/09/17 05:06:11;;;;;;;37.30;23.90;;;17.70;99.90;;;;;;5026000;28;20426;-92
2023/09/17 05:13:09;;;;;;;;;;;;;;;;;;;;;
2023/09/17 05:26:25;;;;;;;33.57;23.87;;;17.90;99.90;;;;;;5021019;28;20470;-92
2023/09/17 05:36:19;;;;;;;29.73;21.90;;;18.00;99.90;;;;;;4929990;28;20450;-93
2023/09/17 05:39:14;;;;;;;27.63;22.53;;;18.00;99.90;;;;;;5034036;28;20508;-93
2023/09/17 05:41:55;;;;;;;26.27;21.77;;;18.00;99.90;;;;;;5019138;28;20407;-93
2023/09/17 05:44:30;;;;;;;27.80;22.37;;;18.00;99.90;;;;;;5018648;28;20442;-93
2023/09/17 05:47:10;;;;;;;28.57;22.03;;;18.00;99.90;;;;;;5022717;28;21017;-93
2023/09/17 05:49:59;;;;;;;24.10;20.90;;;18.10;99.90;;;;;;5023111;28;20446;-93
2023/09/17 05:52:27;;;;;;;30.03;21.00;;;18.10;99.90;;;;;;5038963;28;20408;-93
2023/09/17 05:55:06;;;;;;;31.37;21.90;;;18.10;99.90;;;;;;5037945;28;20395;-94
2023/09/17 06:00:56;;;;;;;22.07;19.10;;;18.20;99.90;;;;;;4981016;28;20899;-94
2023/09/17 06:03:36;;;;;;;22.73;18.60;;;18.20;99.90;;;;;;4963223;28;20408;-94
2023/09/17 06:06:22;;;;;;;23.23;19.00;;;18.20;99.90;;;;;;4978241;28;20970;-93
2023/09/17 06:08:54;;;;;;;21.87;17.80;;;18.20;99.90;;;;;;4978740;28;20470;-93
2023/09/17 06:11:27;;;;;;;22.87;18.77;;;18.10;99.90;;;;;;4965014;28;20427;-94
2023/09/17 06:13:55;;;;;;;21.80;17.27;;;18.20;99.90;;;;;;4979373;28;20423;-94
2023/09/17 06:16:29;;;;;;;21.13;17.40;;;18.20;99.90;;;;;;4981346;28;20919;-95
2023/09/17 06:18:55;;;;;;;17.70;15.50;;;18.20;99.90;;;;;;4980892;28;20430;-94
2023/09/17 06:21:20;;;;;;;20.90;17.53;;;18.20;99.90;;;;;;4997779;28;20421;-95
2023/09/17 06:23:46;;;;;;;18.30;16.27;;;18.20;99.90;;;;;;5044078;28;20181;-96
2023/09/17 06:26:12;;;;;;;19.93;16.57;;;18.20;99.90;;;;;;5040547;28;20684;-95
2023/09/17 06:28:51;;;;;;;19.60;17.67;;;18.30;99.90;;;;;;5041644;28;20661;-95
2023/09/17 06:31:17;;;;;;;22.07;19.17;;;18.30;99.90;;;;;;5040175;28;20195;-95
2023/09/17 06:33:43;;;;;;;18.70;16.70;;;18.30;99.90;;;;;;5038544;28;20503;-95
2023/09/17 06:36:09;;;;;;;20.57;17.57;;;18.30;99.90;;;;;;5040849;28;20423;-94
2023/09/17 06:38:35;;;;;;;21.63;17.27;;;18.30;99.90;;;;;;5039019;28;20199;-95
2023/09/17 06:41:04;;;;;;;28.67;17.87;;;18.40;99.90;;;;;;5042288;28;20652;-95
2023/09/17 06:43:30;;;;;;;20.37;16.80;;;18.40;99.90;;;;;;5056460;28;20396;-95
2023/09/17 06:45:57;;;;;;;21.37;18.63;;;18.50;99.90;;;;;;5040097;28;20424;-90
2023/09/17 06:48:22;;;;;;;21.40;18.37;;;18.50;99.90;;;;;;5039380;28;20511;-91
2023/09/17 06:50:48;;;;;;;18.43;16.53;;;18.60;99.90;;;;;;5039472;28;20394;-91
2023/09/17 06:53:19;;;;;;;22.33;17.97;;;18.60;99.90;;;;;;5038856;28;20264;-91
2023/09/17 06:55:45;;;;;;;19.17;16.77;;;18.70;99.90;;;;;;5039028;28;20693;-91
2023/09/17 06:58:12;;;;;;;19.37;17.23;;;18.70;99.90;;;;;;5039201;28;20917;-91
2023/09/17 07:00:37;;;;;;;18.43;15.90;;;18.70;99.90;;;;;;5039017;28;20208;-90
2023/09/17 07:03:06;;;;;;;20.97;17.27;;;18.80;99.90;;;;;;5038468;28;20420;-90
2023/09/17 07:05:39;;;;;;;21.83;16.70;;;18.90;99.90;;;;;;5038703;28;20178;-91
2023/09/17 07:08:07;;;;;;;18.00;16.07;;;18.90;99.90;;;;;;5038303;28;20474;-91
2023/09/17 07:10:33;;;;;;;21.20;16.57;;;19.00;99.90;;;;;;5038823;28;20514;-90
2023/09/17 07:13:02;;;;;;;18.10;16.20;;;19.00;99.90;;;;;;5038293;28;20553;-90
2023/09/17 07:15:28;;;;;;;17.80;15.90;;;19.00;99.90;;;;;;5038586;28;20213;-89
2023/09/17 07:17:54;;;;;;;19.10;15.40;;;19.10;99.90;;;;;;5037814;28;20455;-91
2023/09/17 07:20:22;;;;;;;18.77;16.53;;;19.20;99.90;;;;;;5038717;28;20186;-90
2023/09/17 07:22:49;;;;;;;17.33;15.73;;;19.20;99.90;;;;;;5037952;28;20420;-91
2023/09/17 07:25:14;;;;;;;16.70;15.10;;;19.30;99.90;;;;;;5037553;28;20758;-89
2023/09/17 07:27:40;;;;;;;16.90;15.23;;;19.30;99.90;;;;;;5037778;28;20383;-90
2023/09/17 07:30:06;;;;;;;14.77;13.17;;;19.40;99.90;;;;;;5038606;28;20727;-92
2023/09/17 07:32:32;;;;;;;17.80;14.17;;;19.30;99.90;;;;;;5038658;28;20236;-91
2023/09/17 07:35:01;;;;;;;13.80;12.33;;;19.40;99.90;;;;;;5038148;28;20399;-90
2023/09/17 07:37:27;;;;;;;17.77;12.93;;;19.50;99.90;;;;;;5038299;28;20186;-91
2023/09/17 07:39:58;;;;;;;15.50;13.90;;;19.60;99.90;;;;;;5037963;28;20418;-90
2023/09/17 07:42:23;;;;;;;14.10;12.77;;;19.70;99.90;;;;;;5038607;28;20416;-91
2023/09/17 07:44:49;;;;;;;13.00;11.80;;;19.70;99.90;;;;;;5039006;28;20415;-92
2023/09/17 07:47:16;;;;;;;13.17;11.97;;;19.70;99.90;;;;;;5021479;28;20268;-91
2023/09/17 07:49:42;;;;;;;12.40;11.10;;;19.80;99.90;;;;;;5038465;28;20224;-92
2023/09/17 07:52:08;;;;;;;12.53;11.33;;;19.90;99.90;;;;;;5024843;28;20416;-95
2023/09/17 07:54:39;;;;;;;12.10;10.53;;;19.90;99.90;;;;;;5019068;28;20400;-91
2023/09/17 07:57:05;;;;;;;10.33;9.37;;;19.90;99.90;;;;;;5001951;28;20556;-93
2023/09/17 07:59:31;;;;;;;10.83;9.53;;;19.90;99.90;;;;;;5036517;28;20420;-91
2023/09/17 08:01:58;;;;;;;11.03;9.97;;;20.00;99.90;;;;;;5036242;28;20388;-92
2023/09/17 08:04:24;;;;;;;15.30;10.10;;;20.10;99.90;;;;;;5017862;28;20269;-90
2023/09/17 08:06:49;;;;;;;10.43;8.13;;;20.20;99.90;;;;;;5018282;28;20810;-90
2023/09/17 08:09:16;;;;;;;9.43;8.47;;;20.20;99.90;;;;;;5018113;28;20483;-89
2023/09/17 08:11:42;;;;;;;8.70;7.90;;;20.30;99.90;;;;;;5020618;28;20178;-89
2023/09/17 08:14:12;;;;;;;8.67;7.73;;;20.40;99.90;;;;;;5035002;28;20395;-89
2023/09/17 08:16:38;;;;;;;7.97;7.20;;;20.50;99.90;;;;;;5017566;28;20408;-90
2023/09/17 08:19:04;;;;;;;14.00;7.30;;;20.60;99.90;;;;;;5017400;28;20922;-90
2023/09/17 08:21:30;;;;;;;7.83;7.03;;;20.70;99.90;;;;;;5017435;28;20491;-89
2023/09/17 08:23:56;;;;;;;7.93;7.10;;;20.80;99.90;;;;;;5017138;28;20464;-88
2023/09/17 08:26:22;;;;;;;7.13;6.43;;;20.90;99.90;;;;;;5017341;28;20200;-88
2023/09/17 08:28:49;;;;;;;6.50;5.80;;;20.90;99.90;;;;;;5017019;28;20291;-91
2023/09/17 08:31:16;;;;;;;10.77;6.40;;;21.00;99.90;;;;;;5034789;28;20412;-88
2023/09/17 08:33:42;;;;;;;6.60;6.03;;;21.10;99.90;;;;;;5047134;28;20437;-89
2023/09/17 08:36:09;;;;;;;8.60;6.60;;;21.20;99.90;;;;;;5017375;28;20429;-88
2023/09/17 08:38:35;;;;;;;7.17;6.60;;;21.40;99.90;;;;;;5032968;28;20411;-90
2023/09/17 08:41:03;;;;;;;6.43;5.93;;;21.50;99.90;;;;;;5016922;28;20478;-88
2023/09/17 08:43:29;;;;;;;6.33;5.83;;;21.70;99.90;;;;;;5034877;28;20405;-88
2023/09/17 08:45:56;;;;;;;4.57;4.20;;;21.90;99.90;;;;;;5034447;28;20409;-89
2023/09/17 08:48:22;;;;;;;3.83;3.53;;;22.20;99.90;;;;;;5016290;28;20451;-88
2023/09/17 08:50:50;;;;;;;5.13;4.27;;;22.20;99.90;;;;;;5033442;28;20870;-90
2023/09/17 08:53:24;;;;;;;4.87;4.00;;;22.50;99.90;;;;;;5016378;28;20579;-88
2023/09/17 08:55:55;;;;;;;8.13;4.10;;;22.80;99.90;;;;;;5016696;28;20412;-88
2023/09/17 08:58:26;;;;;;;4.00;3.47;;;23.00;99.90;;;;;;5022793;28;20804;-90
2023/09/17 09:00:58;;;;;;;5.30;3.53;;;23.10;99.90;;;;;;5031539;28;20423;-90
2023/09/17 09:03:26;;;;;;;3.37;3.10;;;23.40;99.90;;;;;;5016861;28;20783;-89
2023/09/17 09:05:55;;;;;;;5.63;3.43;;;23.40;99.90;;;;;;5016427;28;20420;-90
2023/09/17 09:08:22;;;;;;;4.13;3.50;;;24.00;99.90;;;;;;5015784;28;20518;-89
2023/09/17 09:10:48;;;;;;;3.87;3.30;;;24.30;99.90;;;;;;5016528;28;20505;-89
2023/09/17 09:13:14;;;;;;;3.53;2.70;;;24.40;99.90;;;;;;5015958;28;20477;-88
2023/09/17 09:15:40;;;;;;;4.20;3.17;;;24.60;99.90;;;;;;5031571;28;20181;-88
2023/09/17 09:18:09;;;;;;;3.83;3.07;;;25.30;99.90;;;;;;5041820;28;20204;-88
2023/09/17 09:20:36;;;;;;;4.20;3.30;;;25.40;99.90;;;;;;5049564;28;20836;-88
2023/09/17 09:23:07;;;;;;;5.00;3.00;;;25.30;99.90;;;;;;5073121;28;20407;-88
2023/09/17 09:25:34;;;;;;;6.30;2.93;;;25.40;99.90;;;;;;5055666;28;20419;-88
2023/09/17 09:28:04;;;;;;;3.13;2.80;;;25.30;99.90;;;;;;5039712;28;20551;-89
2023/09/17 09:30:30;;;;;;;3.70;3.37;;;25.00;99.90;;;;;;5035735;28;20431;-88
2023/09/17 09:32:58;;;;;;;5.03;2.80;;;24.90;99.90;;;;;;5035480;28;20424;-88
2023/09/17 09:35:25;;;;;;;3.20;2.83;;;25.40;99.90;;;;;;5034908;28;20416;-88
2023/09/17 09:37:53;;;;;;;2.93;2.60;;;25.90;99.90;;;;;;5035523;28;20420;-88
2023/09/17 09:40:21;;;;;;;3.33;3.00;;;25.70;99.90;;;;;;5018714;28;20436;-89
2023/09/17 09:42:49;;;;;;;4.10;2.90;;;26.00;99.90;;;;;;5053342;28;20419;-89
2023/09/17 09:45:16;;;;;;;4.33;2.40;;;25.80;99.90;;;;;;5051676;28;20423;-89
2023/09/17 09:47:52;;;;;;;5.83;3.20;;;25.80;99.90;;;;;;5035005;28;20439;-89
2023/09/17 09:50:22;;;;;;;3.57;2.93;;;26.20;99.90;;;;;;5053166;28;20415;-89
2023/09/17 09:52:48;;;;;;;2.93;2.73;;;26.50;99.90;;;;;;5035353;28;20843;-88
2023/09/17 09:55:14;;;;;;;4.00;3.20;;;26.50;99.90;;;;;;5034687;28;20439;-89
2023/09/17 09:57:41;;;;;;;4.43;2.77;;;26.20;99.90;;;;;;5052008;28;20416;-90
2023/09/17 10:00:20;;;;;;;2.87;2.47;;;26.10;99.90;;;;;;5020662;28;20440;-89
2023/09/17 10:02:46;;;;;;;2.93;2.40;;;26.90;99.90;;;;;;5033538;28;20476;-88
2023/09/17 10:05:18;;;;;;;3.13;2.77;;;27.60;99.90;;;;;;5032870;28;20868;-86
2023/09/17 10:07:47;;;;;;;10.57;3.20;;;27.50;99.90;;;;;;5015232;28;20417;-87
2023/09/17 10:10:14;;;;;;;3.00;2.80;;;27.70;99.90;;;;;;5031729;28;20795;-88
2023/09/17 10:12:39;;;;;;;2.70;2.50;;;28.20;99.90;;;;;;5015631;28;20405;-86
2023/09/17 10:15:06;;;;;;;3.07;2.80;;;27.80;99.90;;;;;;5032787;28;20500;-87
2023/09/17 10:17:36;;;;;;;3.83;2.87;;;27.80;99.90;;;;;;5015531;28;20193;-89
2023/09/17 10:20:06;;;;;;;3.40;2.80;;;27.90;99.90;;;;;;5020643;28;20451;-90
2023/09/17 10:22:34;;;;;;;3.73;2.60;;;28.10;99.90;;;;;;5057335;28;20891;-89
2023/09/17 10:25:04;;;;;;;3.93;2.93;;;27.80;99.90;;;;;;5038949;28;20423;-89
2023/09/17 10:27:33;;;;;;;2.90;2.60;;;28.30;99.90;;;;;;5056803;28;20404;-85
2023/09/17 10:30:01;;;;;;;3.70;2.50;;;28.30;99.90;;;;;;5038948;28;20911;-86
2023/09/17 10:32:28;;;;;;;3.93;2.60;;;28.60;99.90;;;;;;5056429;28;20412;-87
2023/09/17 10:34:57;;;;;;;2.73;2.53;;;28.50;99.90;;;;;;5022501;28;20420;-86
2023/09/17 10:37:25;;;;;;;2.63;2.43;;;28.90;99.90;;;;;;5022451;28;20416;-88
2023/09/17 10:39:52;;;;;;;2.70;2.50;;;29.10;99.90;;;;;;5022215;28;20510;-88
2023/09/17 10:42:19;;;;;;;2.60;2.40;;;29.50;99.90;;;;;;5038431;28;20894;-89
2023/09/17 10:44:49;;;;;;;2.73;2.53;;;29.30;99.90;;;;;;5022451;28;20415;-88
2023/09/17 10:47:17;;;;;;;3.30;2.60;;;29.00;99.90;;;;;;5038172;28;20439;-88
2023/09/17 10:49:44;;;;;;;2.57;2.37;;;28.90;99.90;;;;;;5038647;28;20463;-88
2023/09/17 10:52:12;;;;;;;3.13;2.83;;;29.20;99.90;;;;;;5038262;28;20416;-88
2023/09/17 10:54:38;;;;;;;3.73;2.70;;;28.90;99.90;;;;;;5040549;28;20412;-87
2023/09/17 10:57:18;;;;;;;2.43;2.23;;;28.90;99.90;;;;;;5054998;28;20558;-88
2023/09/17 10:59:44;;;;;;;3.53;2.87;;;29.20;99.90;;;;;;5038376;28;20259;-89
2023/09/17 11:02:13;;;;;;;2.83;2.60;;;29.20;99.90;;;;;;5035308;28;20788;-89
2023/09/17 11:04:39;;;;;;;3.60;2.53;;;29.00;99.90;;;;;;5019727;28;20420;-87
2023/09/17 11:07:07;;;;;;;4.87;2.57;;;29.30;99.90;;;;;;5018475;28;20512;-90
2023/09/17 11:09:34;;;;;;;2.50;2.30;;;29.50;99.90;;;;;;5035814;28;20467;-88
2023/09/17 11:12:01;;;;;;;5.17;2.70;;;29.50;99.90;;;;;;5017938;28;20921;-88
2023/09/17 11:14:28;;;;;;;3.53;2.17;;;29.60;99.90;;;;;;5018002;28;20850;-88
2023/09/17 11:16:54;;;;;;;3.87;2.63;;;29.60;99.90;;;;;;5018013;28;20461;-88
2023/09/17 11:19:20;;;;;;;3.30;2.50;;;29.80;99.90;;;;;;5017767;28;20507;-89
2023/09/17 11:22:07;;;;;;;2.77;2.50;;;30.10;99.90;;;;;;5001859;28;20248;-88
2023/09/17 11:24:33;;;;;;;2.83;2.23;;;29.80;99.90;;;;;;5017985;28;20416;-90
2023/09/17 11:27:04;;;;;;;3.07;2.77;;;30.20;99.90;;;;;;5035786;28;20405;-89
2023/09/17 11:29:44;;;;;;;2.60;2.40;;;30.20;99.90;;;;;;5012264;28;20575;-88
2023/09/17 11:32:11;;;;;;;2.93;2.50;;;30.40;99.90;;;;;;5037684;28;20562;-88
2023/09/17 11:34:40;;;;;;;2.70;2.50;;;30.30;99.90;;;;;;5054092;28;21042;-88
2023/09/17 11:37:06;;;;;;;3.10;2.20;;;30.90;99.90;;;;;;5022976;28;20432;-92
2023/09/17 11:39:35;;;;;;;2.40;2.20;;;31.00;99.90;;;;;;5035223;28;20405;-88
2023/09/17 11:42:03;;;;;;;2.80;2.60;;;31.50;99.90;;;;;;5017882;28;20547;-88
2023/09/17 11:44:35;;;;;;;2.17;2.03;;;31.60;99.90;;;;;;5001489;28;20432;-88
2023/09/17 11:47:01;;;;;;;2.13;2.03;;;31.80;99.90;;;;;;5017481;28;20444;-88
2023/09/17 11:49:28;;;;;;;2.83;2.53;;;31.70;99.90;;;;;;5017041;28;20500;-89
2023/09/17 11:51:57;;;;;;;2.70;2.17;;;31.90;99.90;;;;;;5033771;28;20444;-89
2023/09/17 11:54:25;;;;;;;3.57;2.87;;;32.30;99.90;;;;;;5032918;28;20470;-89
2023/09/17 11:56:53;;;;;;;2.50;2.30;;;32.60;99.90;;;;;;5021125;28;20478;-88
2023/09/17 11:59:20;;;;;;;2.37;2.10;;;32.80;99.90;;;;;;5036852;28;20427;-85
2023/09/17 12:01:59;;;;;;;2.13;1.93;;;32.70;99.90;;;;;;5037079;28;20787;-85
2023/09/17 12:04:27;;;;;;;2.87;2.50;;;32.10;99.90;;;;;;5036547;28;20420;-86
2023/09/17 12:06:54;;;;;;;2.23;2.03;;;32.20;99.90;;;;;;5037032;28;20408;-88
2023/09/17 12:09:23;;;;;;;3.17;2.60;;;32.20;99.90;;;;;;5053837;28;20525;-88
2023/09/17 12:11:50;;;;;;;2.47;2.27;;;32.10;99.90;;;;;;5037615;28;20416;-89
2023/09/17 12:14:16;;;;;;;2.40;2.20;;;32.40;99.90;;;;;;5036735;28;20420;-88
2023/09/17 12:16:43;;;;;;;2.57;2.37;;;32.80;99.90;;;;;;5054462;28;20454;-87
2023/09/17 12:19:09;;;;;;;2.57;2.30;;;32.80;99.90;;;;;;5037091;28;20438;-89
2023/09/17 12:21:39;;;;;;;5.07;3.00;;;32.60;99.90;;;;;;5003743;28;20424;-87
2023/09/17 12:24:06;;;;;;;3.13;2.83;;;31.70;99.90;;;;;;5020456;28;20507;-88
2023/09/17 12:29:41;;;;;;;3.60;2.20;;;32.60;99.90;;;;;;4977156;28;20582;-85
2023/09/17 12:32:09;;;;;;;4.57;2.63;;;33.10;99.90;;;;;;5020648;28;20508;-84
2023/09/17 12:34:35;;;;;;;2.47;2.27;;;33.50;99.90;;;;;;5016517;28;20174;-86
2023/09/17 12:37:00;;;;;;;2.57;2.37;;;33.40;99.90;;;;;;5034412;28;20436;-87
2023/09/17 12:39:26;;;;;;;4.83;2.23;;;32.20;99.90;;;;;;5032807;28;20428;-88
2023/09/17 12:41:52;;;;;;;3.00;2.20;;;31.90;99.90;;;;;;4999856;28;20549;-87
2023/09/17 12:44:17;;;;;;;2.97;2.07;;;32.10;99.90;;;;;;5000056;28;20178;-88
2023/09/17 12:46:43;;;;;;;2.40;2.23;;;31.60;99.90;;;;;;4999998;28;20181;-88
2023/09/17 12:49:10;;;;;;;2.50;2.30;;;31.90;99.90;;;;;;5032904;28;20216;-87
2023/09/17 12:51:38;;;;;;;2.87;2.03;;;32.30;99.90;;;;;;4999703;28;20634;-88
2023/09/17 12:54:05;;;;;;;3.73;2.10;;;33.30;99.90;;;;;;5016323;28;20413;-88
2023/09/17 12:56:32;;;;;;;1.97;1.87;;;33.40;99.90;;;;;;5016266;28;20416;-87
2023/09/17 12:58:58;;;;;;;3.10;2.13;;;33.30;99.90;;;;;;5016677;28;20754;-86
2023/09/17 13:01:23;;;;;;;2.00;1.80;;;33.60;99.90;;;;;;5032152;28;20507;-85
2023/09/17 13:04:03;;;;;;;2.73;2.53;;;33.60;99.90;;;;;;5033931;28;20236;-84
2023/09/17 13:06:35;;;;;;;5.83;2.37;;;32.70;99.90;;;;;;5017191;28;20634;-87
2023/09/17 13:09:02;;;;;;;4.00;2.20;;;31.40;99.90;;;;;;5019567;28;20474;-87
2023/09/17 13:11:28;;;;;;;2.37;2.17;;;31.40;99.90;;;;;;5015767;28;20431;-87
2023/09/17 13:13:56;;;;;;;2.43;1.80;;;32.40;99.90;;;;;;5033695;28;20416;-85
2023/09/17 13:16:22;;;;;;;2.40;2.23;;;33.00;99.90;;;;;;5015596;28;20428;-87
2023/09/17 13:18:49;;;;;;;2.83;1.90;;;32.50;99.90;;;;;;5015758;28;20425;-86
2023/09/17 13:21:17;;;;;;;3.07;2.23;;;32.20;99.90;;;;;;5016045;28;20248;-87
2023/09/17 13:23:43;;;;;;;2.97;2.10;;;31.90;99.90;;;;;;5033541;28;20734;-86
2023/09/17 13:26:10;;;;;;;4.60;2.40;;;31.50;99.90;;;;;;5032294;28;20417;-86
2023/09/17 13:28:37;;;;;;;2.83;2.47;;;31.50;99.90;;;;;;4998923;28;20517;-86
2023/09/17 13:31:04;;;;;;;2.50;2.30;;;31.50;99.90;;;;;;4999536;28;20439;-86
2023/09/17 13:33:33;;;;;;;2.97;2.10;;;31.60;99.90;;;;;;5037938;28;20805;-87
2023/09/17 13:36:03;;;;;;;3.23;2.30;;;32.00;99.90;;;;;;5035118;28;20428;-86
2023/09/17 13:38:28;;;;;;;2.03;1.83;;;32.00;99.90;;;;;;5053646;28;20434;-87
2023/09/17 13:40:54;;;;;;;3.37;2.23;;;31.90;99.90;;;;;;5035421;28;20404;-86
2023/09/17 13:43:20;;;;;;;4.13;2.17;;;31.80;99.90;;;;;;5002342;28;20205;-87
2023/09/17 13:45:50;;;;;;;4.13;2.10;;;31.90;99.90;;;;;;5035144;28;20185;-87
2023/09/17 13:48:17;;;;;;;3.37;2.00;;;31.80;99.90;;;;;;5034598;28;20219;-87
2023/09/17 13:50:43;;;;;;;2.30;2.20;;;31.80;99.90;;;;;;5052045;28;20474;-87
2023/09/17 13:53:08;;;;;;;2.00;1.90;;;31.70;99.90;;;;;;5052530;28;20436;-86
2023/09/17 13:55:35;;;;;;;1.80;1.70;;;31.70;99.90;;;;;;5002388;28;20186;-86
2023/09/17 13:58:01;;;;;;;1.83;1.60;;;31.60;99.90;;;;;;5053133;28;20170;-86
2023/09/17 14:00:26;;;;;;;2.57;2.20;;;31.30;99.90;;;;;;5051423;28;20783;-86
2023/09/17 14:02:52;;;;;;;2.57;2.30;;;31.30;99.90;;;;;;5051582;28;20184;-86
2023/09/17 14:05:18;;;;;;;2.60;2.20;;;31.00;99.90;;;;;;5018464;28;20264;-87
2023/09/17 14:07:43;;;;;;;3.63;2.57;;;31.30;99.90;;;;;;5023525;28;20190;-87
2023/09/17 14:10:09;;;;;;;2.17;1.97;;;31.20;99.90;;;;;;5015945;28;20210;-86
2023/09/17 14:12:35;;;;;;;2.60;2.30;;;31.30;99.90;;;;;;5015805;28;20174;-86
2023/09/17 14:15:00;;;;;;;2.20;2.07;;;31.50;99.90;;;;;;5051547;28;20177;-86
2023/09/17 14:17:26;;;;;;;2.80;1.90;;;31.70;99.90;;;;;;5034747;28;20554;-87
2023/09/17 14:19:52;;;;;;;3.00;2.10;;;31.80;99.90;;;;;;5051667;28;20189;-86
2023/09/17 14:22:18;;;;;;;3.13;2.20;;;31.30;99.90;;;;;;5002216;28;20637;-87
2023/09/17 14:24:44;;;;;;;2.70;1.90;;;31.50;99.90;;;;;;5018785;28;20181;-86
2023/09/17 14:27:09;;;;;;;2.90;1.77;;;31.70;99.90;;;;;;5018537;28;20232;-86
2023/09/17 14:29:37;;;;;;;2.90;1.80;;;31.70;99.90;;;;;;5034363;28;20491;-87
2023/09/17 14:32:04;;;;;;;2.03;1.83;;;31.70;99.90;;;;;;5035098;28;20177;-86
2023/09/17 14:34:29;;;;;;;2.60;1.87;;;31.60;99.90;;;;;;5034698;28;20449;-86
2023/09/17 14:36:55;;;;;;;2.20;1.90;;;31.50;99.90;;;;;;5018599;28;20435;-86
2023/09/17 14:39:23;;;;;;;2.40;2.20;;;31.30;99.90;;;;;;5051109;28;20181;-87
2023/09/17 14:41:52;;;;;;;3.13;2.00;;;31.30;99.90;;;;;;5018493;28;20653;-85
2023/09/17 14:44:18;;;;;;;3.47;1.77;;;31.00;99.90;;;;;;5035318;28;20836;-86
2023/09/17 14:46:44;;;;;;;2.07;1.97;;;31.10;99.90;;;;;;5021984;28;20434;-86
2023/09/17 14:49:10;;;;;;;2.33;2.00;;;31.20;99.90;;;;;;5038273;28;20467;-87
2023/09/17 14:51:36;;;;;;;3.13;2.13;;;31.10;99.90;;;;;;5072355;28;20184;-86
2023/09/17 14:54:03;;;;;;;3.00;2.07;;;30.90;99.90;;;;;;5054382;28;20419;-86
2023/09/17 14:56:28;;;;;;;3.30;2.30;;;30.90;99.90;;;;;;5037950;28;20187;-86
2023/09/17 14:58:54;;;;;;;2.63;1.77;;;30.70;99.90;;;;;;5037800;28;20506;-86
2023/09/17 15:01:20;;;;;;;3.40;2.00;;;30.50;99.90;;;;;;5054213;28;20173;-86
2023/09/17 15:03:45;;;;;;;2.30;1.90;;;30.50;99.90;;;;;;5038086;28;20189;-86
2023/09/17 15:06:12;;;;;;;2.00;1.80;;;30.50;99.90;;;;;;5041104;28;20271;-86
2023/09/17 15:08:38;;;;;;;2.60;1.50;;;30.50;99.90;;;;;;5041372;28;20208;-86
2023/09/17 15:11:03;;;;;;;1.60;1.50;;;30.50;99.90;;;;;;5057764;28;20422;-86
2023/09/17 15:13:29;;;;;;;2.17;1.97;;;30.60;99.90;;;;;;5024593;28;20235;-86
2023/09/17 15:15:54;;;;;;;2.27;1.83;;;30.50;99.90;;;;;;5057745;28;20184;-86
2023/09/17 15:18:20;;;;;;;2.20;1.80;;;30.30;99.90;;;;;;5058079;28;20189;-86
2023/09/17 15:20:46;;;;;;;2.13;1.73;;;30.40;99.90;;;;;;5036330;28;20204;-86
2023/09/17 15:23:12;;;;;;;8.03;1.80;;;30.50;99.90;;;;;;5028038;28;20190;-86
2023/09/17 15:25:38;;;;;;;2.07;1.60;;;30.50;99.90;;;;;;5038382;28;20424;-80
2023/09/17 15:28:05;;;;;;;3.23;1.83;;;30.30;99.90;;;;;;5037298;28;20233;-80
2023/09/17 15:30:30;;;;;;;2.50;2.00;;;30.30;99.90;;;;;;5020651;28;20197;-79
2023/09/17 15:32:56;;;;;;;2.90;1.83;;;30.10;99.90;;;;;;5021461;28;20411;-79
2023/09/17 15:35:23;;;;;;;4.60;1.80;;;30.00;99.90;;;;;;5037707;28;20189;-80
2023/09/17 15:37:49;;;;;;;2.50;2.03;;;30.10;99.90;;;;;;5021201;28;20539;-80
2023/09/17 15:40:15;;;;;;;2.20;1.80;;;30.30;99.90;;;;;;5037199;28;20424;-80
2023/09/17 15:42:45;;;;;;;3.10;2.20;;;30.20;99.90;;;;;;5037051;28;20204;-80